createdAt,value
2023-03-05T00:00:17.549Z,101281.09
2023-03-05T00:02:46.107Z,101274.44
2023-03-05T00:05:14.670Z,101270.69
2023-03-05T00:07:43.094Z,101266.22
2023-03-05T00:10:12.132Z,101273.50
2023-03-05T00:12:42.176Z,101261.78
2023-03-05T00:15:11.264Z,101265.91
2023-03-05T00:17:39.738Z,101262.72
2023-03-05T00:20:09.852Z,101261.78
2023-03-05T00:22:38.331Z,101260.03
2023-03-05T00:25:07.827Z,101261.34
2023-03-05T00:27:36.376Z,101256.31
2023-03-05T00:30:07.583Z,101254.03
2023-03-05T00:32:36.334Z,101250.97
2023-03-05T00:35:05.445Z,101249.84
2023-03-05T00:37:33.903Z,101242.78
2023-03-05T00:40:02.647Z,101247.47
2023-03-05T00:42:31.406Z,101244.91
2023-03-05T00:44:59.990Z,101240.91
2023-03-05T00:47:29.764Z,101245.56
2023-03-05T00:49:58.221Z,101240.44
2023-03-05T00:52:28.045Z,101238.06
2023-03-05T00:54:56.524Z,101224.91
2023-03-05T00:57:25.119Z,101227.97
2023-03-05T00:59:53.631Z,101222.66
2023-03-05T01:02:22.424Z,101219.25
2023-03-05T01:04:52.406Z,101213.63
2023-03-05T01:07:20.847Z,101211.03
2023-03-05T01:09:49.352Z,101223.03
2023-03-05T01:12:17.791Z,101219.72
2023-03-05T01:14:46.261Z,101219.59
2023-03-05T01:17:14.802Z,101215.50
2023-03-05T01:19:43.180Z,101219.25
2023-03-05T01:22:13.088Z,101206.56
2023-03-05T01:24:41.624Z,101222.31
2023-03-05T01:27:10.103Z,101212.09
2023-03-05T01:29:38.909Z,101206.22
2023-03-05T01:32:07.854Z,101215.97
2023-03-05T01:34:37.576Z,101194.78
2023-03-05T01:37:06.207Z,101196.91
2023-03-05T01:39:36.731Z,101196.09
2023-03-05T01:42:05.601Z,101193.63
2023-03-05T01:44:34.215Z,101188.69
2023-03-05T01:47:02.743Z,101188.94
2023-03-05T01:49:33.762Z,101192.84
2023-03-05T01:52:06.658Z,101182.97
2023-03-05T01:54:40.060Z,101178.03
2023-03-05T01:57:13.382Z,101178.72
2023-03-05T01:59:44.711Z,101172.84
2023-03-05T02:02:14.413Z,101167.66
2023-03-05T02:04:47.069Z,101159.91
2023-03-05T02:07:16.914Z,101164.88
2023-03-05T02:09:46.667Z,101160.75
2023-03-05T02:12:16.143Z,101154.88
2023-03-05T02:14:47.683Z,101157.81
2023-03-05T02:17:16.973Z,101151.81
2023-03-05T02:19:54.199Z,101142.63
2023-03-05T02:22:25.310Z,101147.25
2023-03-05T02:24:53.735Z,101145.94
2023-03-05T02:27:27.172Z,101151.13
2023-03-05T02:29:55.768Z,101138.53
2023-03-05T02:32:24.272Z,101129.50
2023-03-05T02:34:52.795Z,101133.38
2023-03-05T02:37:21.287Z,101134.06
2023-03-05T02:39:51.129Z,101137.25
2023-03-05T02:42:19.658Z,101130.66
2023-03-05T02:44:48.158Z,101130.66
2023-03-05T02:47:16.741Z,101121.75
2023-03-05T02:49:46.144Z,101121.84
2023-03-05T02:52:14.724Z,101123.63
2023-03-05T02:54:43.256Z,101121.03
2023-03-05T02:57:13.136Z,101105.66
2023-03-05T02:59:41.646Z,101102.25
2023-03-05T03:02:10.024Z,101097.88
2023-03-05T03:04:38.703Z,101106.81
2023-03-05T03:07:07.358Z,101099.88
2023-03-05T03:09:36.386Z,101095.41
2023-03-05T03:12:05.703Z,101093.41
2023-03-05T03:14:39.020Z,101094.13
2023-03-05T03:17:08.170Z,101091.19
2023-03-05T03:19:37.103Z,101090.13
2023-03-05T03:22:06.737Z,101079.22
2023-03-05T03:24:36.671Z,101078.25
2023-03-05T03:27:05.522Z,101068.97
2023-03-05T03:29:35.479Z,101068.50
2023-03-05T03:32:04.719Z,101066.41
2023-03-05T03:34:33.239Z,101063.69
2023-03-05T03:37:02.950Z,101063.59
2023-03-05T03:39:31.572Z,101063.47
2023-03-05T03:42:00.074Z,101059.38
2023-03-05T03:44:28.508Z,101060.19
2023-03-05T03:46:58.428Z,101056.31
2023-03-05T03:49:29.955Z,101053.84
2023-03-05T03:51:59.068Z,101047.25
2023-03-05T03:54:29.512Z,101040.72
2023-03-05T03:56:58.037Z,101028.94
2023-03-05T03:59:26.601Z,101030.97
2023-03-05T04:01:55.203Z,101030.50
2023-03-05T04:04:26.423Z,101023.31
2023-03-05T04:06:57.984Z,101017.22
2023-03-05T04:09:32.387Z,101013.00
2023-03-05T04:12:00.901Z,101026.13
2023-03-05T04:14:32.094Z,101019.31
2023-03-05T04:17:00.640Z,101011.56
2023-03-05T04:19:33.156Z,101014.41
2023-03-05T04:22:01.661Z,101007.22
2023-03-05T04:24:30.023Z,101005.72
2023-03-05T04:26:58.483Z,101004.66
2023-03-05T04:29:27.070Z,101002.66
2023-03-05T04:31:55.766Z,101008.63
2023-03-05T04:34:24.220Z,101010.75
2023-03-05T04:36:53.942Z,101012.63
2023-03-05T04:39:22.797Z,101012.50
2023-03-05T04:41:51.186Z,100993.50
2023-03-05T04:44:19.729Z,100997.25
2023-03-05T04:46:48.358Z,101001.47
2023-03-05T04:49:16.769Z,100999.38
2023-03-05T04:51:45.191Z,100990.91
2023-03-05T04:54:14.920Z,100986.69
2023-03-05T04:56:43.410Z,100987.97
2023-03-05T04:59:11.983Z,100988.31
2023-03-05T05:01:40.444Z,100985.03
2023-03-05T05:04:08.964Z,100987.16
2023-03-05T05:06:40.565Z,100990.91
2023-03-05T05:09:09.265Z,100987.16
2023-03-05T05:11:40.697Z,100983.78
2023-03-05T05:14:09.108Z,100989.25
2023-03-05T05:16:37.636Z,100986.84
2023-03-05T05:19:06.277Z,100989.63
2023-03-05T05:21:35.396Z,100981.41
2023-03-05T05:24:04.100Z,100976.59
2023-03-05T05:26:32.737Z,100978.94
2023-03-05T05:29:02.523Z,100980.09
2023-03-05T05:31:30.929Z,100972.50
2023-03-05T05:33:59.597Z,100968.50
2023-03-05T05:36:28.015Z,100966.06
2023-03-05T05:38:56.871Z,100961.78
2023-03-05T05:41:25.724Z,100966.50
2023-03-05T05:43:54.153Z,100961.31
2023-03-05T05:46:24.661Z,100951.81
2023-03-05T05:48:53.354Z,100962.19
2023-03-05T05:51:24.183Z,100961.22
2023-03-05T05:53:52.910Z,100961.09
2023-03-05T05:56:22.269Z,100951.56
2023-03-05T05:58:51.278Z,100958.84
2023-03-05T06:01:22.764Z,100959.91
2023-03-05T06:03:53.607Z,100959.56
2023-03-05T06:06:25.106Z,100956.84
2023-03-05T06:08:54.707Z,100959.22
2023-03-05T06:11:24.149Z,100960.03
2023-03-05T06:13:52.670Z,100949.03
2023-03-05T06:16:23.879Z,100954.19
2023-03-05T06:18:54.772Z,100943.41
2023-03-05T06:21:23.913Z,100950.09
2023-03-05T06:23:52.765Z,100945.16
2023-03-05T06:26:23.004Z,100952.34
2023-03-05T06:28:52.482Z,100955.25
2023-03-05T06:31:23.305Z,100947.72
2023-03-05T06:33:52.554Z,100946.09
2023-03-05T06:36:24.176Z,100955.59
2023-03-05T06:38:53.686Z,100946.22
2023-03-05T06:41:24.098Z,100956.66
2023-03-05T06:43:52.547Z,100950.31
2023-03-05T06:46:22.862Z,100955.59
2023-03-05T06:48:52.531Z,100957.25
2023-03-05T06:51:24.755Z,100946.56
2023-03-05T06:53:54.647Z,100947.81
2023-03-05T06:56:23.886Z,100933.84
2023-03-05T06:58:53.093Z,100947.13
2023-03-05T07:01:23.854Z,100933.50
2023-03-05T07:03:53.636Z,100938.66
2023-03-05T07:06:23.933Z,100937.47
2023-03-05T07:08:55.331Z,100939.00
2023-03-05T07:11:24.528Z,100931.84
2023-03-05T07:13:52.942Z,100930.19
2023-03-05T07:16:23.668Z,100930.75
2023-03-05T07:18:52.987Z,100934.69
2023-03-05T07:21:24.412Z,100931.06
2023-03-05T07:23:54.971Z,100924.50
2023-03-05T07:26:24.322Z,100928.34
2023-03-05T07:28:52.886Z,100928.72
2023-03-05T07:31:27.109Z,100931.13
2023-03-05T07:33:55.786Z,100925.88
2023-03-05T07:36:25.684Z,100934.81
2023-03-05T07:38:54.384Z,100924.47
2023-03-05T07:41:23.513Z,100922.84
2023-03-05T07:43:53.981Z,100918.59
2023-03-05T07:46:25.947Z,100917.88
2023-03-05T07:48:56.166Z,100911.38
2023-03-05T07:51:28.616Z,100910.78
2023-03-05T07:53:58.856Z,100915.06
2023-03-05T07:56:32.195Z,100904.41
2023-03-05T07:59:01.787Z,100903.22
2023-03-05T08:01:30.574Z,100908.78
2023-03-05T08:03:59.231Z,100899.00
2023-03-05T08:06:29.506Z,100900.31
2023-03-05T08:08:59.076Z,100907.06
2023-03-05T08:11:28.432Z,100898.53
2023-03-05T08:13:59.471Z,100900.16
2023-03-05T08:16:28.352Z,100904.44
2023-03-05T08:18:57.563Z,100897.81
2023-03-05T08:21:29.466Z,100895.66
2023-03-05T08:23:59.693Z,100896.13
2023-03-05T08:26:30.035Z,100889.84
2023-03-05T08:28:58.969Z,100888.69
2023-03-05T08:31:30.210Z,100884.50
2023-03-05T08:34:00.061Z,100879.50
2023-03-05T08:36:29.113Z,100878.84
2023-03-05T08:38:59.638Z,100873.56
2023-03-05T08:41:28.593Z,100879.41
2023-03-05T08:43:56.992Z,100881.16
2023-03-05T08:46:25.451Z,100877.22
2023-03-05T08:48:54.060Z,100876.00
2023-03-05T08:51:25.929Z,100869.56
2023-03-05T08:53:56.174Z,100868.88
2023-03-05T08:56:28.298Z,100862.06
2023-03-05T08:58:56.755Z,100870.84
2023-03-05T09:01:25.465Z,100873.16
2023-03-05T09:03:53.889Z,100864.19
2023-03-05T09:06:22.525Z,100867.25
2023-03-05T09:08:51.031Z,100864.97
2023-03-05T09:11:19.687Z,100863.47
2023-03-05T09:13:49.553Z,100859.34
2023-03-05T09:16:19.857Z,100861.22
2023-03-05T09:18:48.625Z,100858.00
2023-03-05T09:21:18.564Z,100857.81
2023-03-05T09:23:47.867Z,100854.63
2023-03-05T09:26:19.366Z,100850.16
2023-03-05T09:28:49.645Z,100855.22
2023-03-05T09:31:18.775Z,100849.06
2023-03-05T09:33:48.993Z,100845.13
2023-03-05T09:36:20.442Z,100847.59
2023-03-05T09:38:49.328Z,100850.34
2023-03-05T09:41:27.487Z,100856.59
2023-03-05T09:44:03.445Z,100844.66
2023-03-05T09:46:46.756Z,100846.28
2023-03-05T09:49:20.284Z,100848.09
2023-03-05T09:51:53.880Z,100837.09
2023-03-05T09:54:25.885Z,100841.63
2023-03-05T09:56:57.581Z,100844.34
2023-03-05T09:59:35.868Z,100842.41
2023-03-05T10:02:12.710Z,100831.31
2023-03-05T10:04:46.095Z,100829.03
2023-03-05T10:07:20.004Z,100831.28
2023-03-05T10:09:55.293Z,100825.34
2023-03-05T10:12:28.793Z,100823.41
2023-03-05T10:15:00.740Z,100824.78
2023-03-05T10:17:51.192Z,100821.91
2023-03-05T10:20:40.026Z,100822.00
2023-03-05T10:23:32.066Z,100815.91
2023-03-05T10:26:16.060Z,100812.69
2023-03-05T10:28:54.619Z,100802.63
2023-03-05T10:31:44.765Z,100799.50
2023-03-05T10:34:31.269Z,100790.81
2023-03-05T10:37:30.026Z,100783.75
2023-03-05T10:40:19.448Z,100788.38
2023-03-05T10:42:56.316Z,100775.63
2023-03-05T10:45:30.189Z,100775.56
2023-03-05T10:48:06.112Z,100778.50
2023-03-05T10:50:39.572Z,100776.06
2023-03-05T10:53:16.294Z,100765.50
2023-03-05T10:55:45.169Z,100766.88
2023-03-05T10:58:15.432Z,100770.44
2023-03-05T11:01:04.347Z,100764.72
2023-03-05T11:03:56.470Z,100766.91
2023-03-05T11:06:34.753Z,100753.03
2023-03-05T11:09:21.818Z,100752.13
2023-03-05T11:12:12.582Z,100752.16
2023-03-05T11:14:43.050Z,100750.53
2023-03-05T11:17:34.111Z,100746.78
2023-03-05T11:20:32.617Z,100745.00
2023-03-05T11:23:12.251Z,100746.97
2023-03-05T11:25:59.489Z,100736.59
2023-03-05T11:28:33.743Z,100728.94
2023-03-05T11:31:09.404Z,100725.97
2023-03-05T11:33:38.729Z,100721.50
2023-03-05T11:36:23.861Z,100723.25
2023-03-05T11:38:55.692Z,100724.13
2023-03-05T11:41:32.366Z,100722.75
2023-03-05T11:44:05.690Z,100724.16
2023-03-05T11:46:41.958Z,100711.22
2023-03-05T11:49:15.921Z,100717.94
2023-03-05T11:51:51.856Z,100711.69
2023-03-05T11:54:27.524Z,100709.22
2023-03-05T11:56:56.304Z,100710.31
2023-03-05T11:59:28.888Z,100707.97
2023-03-05T12:01:58.827Z,100697.63
2023-03-05T12:04:27.455Z,100699.31
2023-03-05T12:07:01.068Z,100700.84
2023-03-05T12:09:40.902Z,100687.84
2023-03-05T12:12:21.585Z,100686.53
2023-03-05T12:14:54.374Z,100679.25
2023-03-05T12:17:29.640Z,100680.38
2023-03-05T12:20:04.837Z,100670.88
2023-03-05T12:22:38.352Z,100671.72
2023-03-05T12:25:28.959Z,100667.88
2023-03-05T12:27:57.886Z,100665.06
2023-03-05T12:30:55.703Z,100651.31
2023-03-05T12:33:36.389Z,100651.75
2023-03-05T12:36:33.900Z,100641.38
2023-03-05T12:39:43.907Z,100637.91
2023-03-05T12:42:44.725Z,100625.84
2023-03-05T12:45:34.517Z,100617.53
2023-03-05T12:48:40.596Z,100615.63
2023-03-05T12:51:28.911Z,100619.78
2023-03-05T12:53:58.487Z,100604.25
2023-03-05T12:56:32.619Z,100601.69
2023-03-05T12:59:04.224Z,100591.00
2023-03-05T13:01:43.104Z,100590.13
2023-03-05T13:04:19.671Z,100583.53
2023-03-05T13:06:58.480Z,100584.44
2023-03-05T13:09:29.832Z,100577.97
2023-03-05T13:11:59.775Z,100571.16
2023-03-05T13:14:36.712Z,100563.09
2023-03-05T13:17:40.217Z,100563.72
2023-03-05T13:20:27.854Z,100566.69
2023-03-05T13:23:19.878Z,100557.53
2023-03-05T13:26:00.290Z,100558.34
2023-03-05T13:28:31.030Z,100552.13
2023-03-05T13:31:02.661Z,100558.41
2023-03-05T13:33:35.973Z,100541.66
2023-03-05T13:36:06.003Z,100538.88
2023-03-05T13:38:41.397Z,100538.06
2023-03-05T13:41:25.312Z,100529.56
2023-03-05T13:43:57.267Z,100528.19
2023-03-05T13:46:31.781Z,100516.94
2023-03-05T13:49:19.135Z,100514.53
2023-03-05T13:51:49.741Z,100520.91
2023-03-05T13:54:20.865Z,100516.13
2023-03-05T13:56:51.098Z,100506.00
2023-03-05T13:59:22.687Z,100502.34
2023-03-05T14:01:54.089Z,100499.19
2023-03-05T14:04:25.624Z,100503.28
2023-03-05T14:06:59.397Z,100493.97
2023-03-05T14:09:29.852Z,100494.00
2023-03-05T14:12:01.692Z,100495.56
2023-03-05T14:14:36.756Z,100497.13
2023-03-05T14:17:38.165Z,100490.50
2023-03-05T14:20:28.892Z,100479.41
2023-03-05T14:22:59.618Z,100483.91
2023-03-05T14:25:35.466Z,100480.00
2023-03-05T14:28:05.571Z,100478.25
2023-03-05T14:30:36.416Z,100469.16
2023-03-05T14:33:05.444Z,100458.22
2023-03-05T14:35:34.321Z,100455.03
2023-03-05T14:38:03.059Z,100451.81
2023-03-05T14:40:33.877Z,100450.84
2023-03-05T14:43:03.971Z,100445.81
2023-03-05T14:45:34.175Z,100438.31
2023-03-05T14:48:06.396Z,100432.72
2023-03-05T14:50:37.950Z,100439.78
2023-03-05T14:53:10.509Z,100436.81
2023-03-05T14:55:39.269Z,100431.38
2023-03-05T14:58:13.371Z,100426.22
2023-03-05T15:00:42.194Z,100423.19
2023-03-05T15:03:13.491Z,100417.56
2023-03-05T15:05:42.768Z,100419.66
2023-03-05T15:08:16.069Z,100415.53
2023-03-05T15:10:44.740Z,100411.50
2023-03-05T15:13:15.585Z,100410.06
2023-03-05T15:15:44.977Z,100405.25
2023-03-05T15:18:16.558Z,100402.69
2023-03-05T15:20:45.888Z,100400.38
2023-03-05T15:23:14.432Z,100398.00
2023-03-05T15:25:42.902Z,100389.28
2023-03-05T15:28:11.996Z,100396.44
2023-03-05T15:30:43.083Z,100395.97
2023-03-05T15:33:17.031Z,100393.72
2023-03-05T15:35:46.090Z,100392.16
2023-03-05T15:38:15.298Z,100396.78
2023-03-05T15:40:44.141Z,100389.00
2023-03-05T15:43:12.700Z,100391.91
2023-03-05T15:45:41.100Z,100387.91
2023-03-05T15:48:10.238Z,100377.34
2023-03-05T15:50:43.104Z,100376.59
2023-03-05T15:53:15.611Z,100383.94
2023-03-05T15:55:45.749Z,100376.63
2023-03-05T15:58:16.634Z,100370.94
2023-03-05T16:00:47.285Z,100366.34
2023-03-05T16:03:15.858Z,100364.75
2023-03-05T16:05:45.614Z,100356.59
2023-03-05T16:08:14.439Z,100359.59
2023-03-05T16:10:42.892Z,100350.63
2023-03-05T16:13:15.088Z,100350.91
2023-03-05T16:15:44.720Z,100350.09
2023-03-05T16:18:17.560Z,100355.53
2023-03-05T16:20:47.603Z,100344.66
2023-03-05T16:23:16.066Z,100346.84
2023-03-05T16:25:44.612Z,100340.88
2023-03-05T16:28:13.130Z,100346.59
2023-03-05T16:30:41.834Z,100338.72
2023-03-05T16:33:10.538Z,100341.16
2023-03-05T16:35:39.054Z,100338.97
2023-03-05T16:38:09.124Z,100327.31
2023-03-05T16:41:02.934Z,100333.56
2023-03-05T16:43:26.856Z,100330.28
2023-03-05T16:45:55.383Z,100319.72
2023-03-05T16:48:23.807Z,100328.91
2023-03-05T16:50:52.278Z,100327.84
2023-03-05T16:53:21.975Z,100323.50
2023-03-05T16:55:50.453Z,100331.09
2023-03-05T16:58:18.853Z,100333.25
2023-03-05T17:00:48.853Z,100323.19
2023-03-05T17:03:17.316Z,100316.97
2023-03-05T17:05:45.855Z,100314.25
2023-03-05T17:08:14.365Z,100318.06
2023-03-05T17:10:44.688Z,100314.75
2023-03-05T17:13:13.240Z,100315.56
2023-03-05T17:15:44.555Z,100320.16
2023-03-05T17:18:13.194Z,100318.84
2023-03-05T17:20:41.630Z,100319.38
2023-03-05T17:23:10.129Z,100320.19
2023-03-05T17:25:38.765Z,100314.75
2023-03-05T17:28:08.677Z,100312.03
2023-03-05T17:30:37.342Z,100313.38
2023-03-05T17:33:06.429Z,100310.16
2023-03-05T17:35:35.212Z,100312.03
2023-03-05T17:38:03.878Z,100308.78
2023-03-05T17:40:32.675Z,100306.28
2023-03-05T17:43:01.096Z,100306.84
2023-03-05T17:45:30.976Z,100306.25
2023-03-05T17:47:59.298Z,100306.56
2023-03-05T17:50:29.226Z,100299.47
2023-03-05T17:52:57.926Z,100297.31
2023-03-05T17:55:26.461Z,100300.38
2023-03-05T17:57:55.013Z,100295.16
2023-03-05T18:00:24.969Z,100300.28
2023-03-05T18:02:55.671Z,100288.63
2023-03-05T18:05:25.756Z,100298.91
2023-03-05T18:07:54.843Z,100290.22
2023-03-05T18:10:25.695Z,100286.44
2023-03-05T18:12:54.212Z,100287.53
2023-03-05T18:15:24.809Z,100297.53
2023-03-05T18:17:55.164Z,100287.56
2023-03-05T18:20:29.875Z,100293.22
2023-03-05T18:22:59.150Z,100292.44
2023-03-05T18:25:31.270Z,100289.72
2023-03-05T18:28:00.338Z,100277.81
2023-03-05T18:30:29.257Z,100279.97
2023-03-05T18:32:59.150Z,100277.25
2023-03-05T18:35:28.865Z,100288.59
2023-03-05T18:37:57.986Z,100275.63
2023-03-05T18:40:29.893Z,100271.81
2023-03-05T18:43:00.854Z,100265.59
2023-03-05T18:45:30.888Z,100272.09
2023-03-05T18:48:00.809Z,100269.13
2023-03-05T18:50:30.183Z,100267.47
2023-03-05T18:52:58.674Z,100262.63
2023-03-05T18:55:29.436Z,100267.75
2023-03-05T18:57:58.201Z,100255.56
2023-03-05T19:00:28.991Z,100254.50
2023-03-05T19:02:59.790Z,100255.59
2023-03-05T19:05:28.558Z,100255.53
2023-03-05T19:07:57.652Z,100251.44
2023-03-05T19:10:26.398Z,100249.78
2023-03-05T19:13:05.654Z,100247.13
2023-03-05T19:15:34.346Z,100243.00
2023-03-05T19:18:04.244Z,100243.81
2023-03-05T19:20:32.691Z,100253.84
2023-03-05T19:23:01.273Z,100237.34
2023-03-05T19:25:29.741Z,100242.47
2023-03-05T19:27:58.352Z,100244.09
2023-03-05T19:30:26.691Z,100239.19
2023-03-05T19:32:55.116Z,100234.91
2023-03-05T19:35:25.382Z,100226.78
2023-03-05T19:37:53.906Z,100229.50
2023-03-05T19:40:22.648Z,100232.22
2023-03-05T19:42:51.374Z,100231.91
2023-03-05T19:45:19.996Z,100228.94
2023-03-05T19:47:48.359Z,100220.81
2023-03-05T19:50:17.739Z,100221.06
2023-03-05T19:52:47.519Z,100217.56
2023-03-05T19:55:16.115Z,100225.13
2023-03-05T19:57:46.346Z,100218.63
2023-03-05T20:00:15.164Z,100216.41
2023-03-05T20:02:43.546Z,100210.47
2023-03-05T20:05:12.431Z,100208.25
2023-03-05T20:07:40.773Z,100212.59
2023-03-05T20:10:12.049Z,100208.75
2023-03-05T20:12:40.553Z,100192.22
2023-03-05T20:15:09.676Z,100198.41
2023-03-05T20:17:38.222Z,100191.38
2023-03-05T20:20:08.239Z,100199.00
2023-03-05T20:22:36.668Z,100186.53
2023-03-05T20:25:07.005Z,100185.41
2023-03-05T20:27:36.769Z,100191.41
2023-03-05T20:30:06.149Z,100181.16
2023-03-05T20:32:34.727Z,100185.47
2023-03-05T20:35:03.296Z,100177.91
2023-03-05T20:37:39.866Z,100178.16
2023-03-05T20:40:10.038Z,100169.56
2023-03-05T20:42:39.910Z,100173.34
2023-03-05T20:45:09.485Z,100170.88
2023-03-05T20:47:40.877Z,100165.69
2023-03-05T20:50:10.942Z,100181.63
2023-03-05T20:52:40.069Z,100170.25
2023-03-05T20:55:10.318Z,100168.38
2023-03-05T20:57:41.898Z,100164.88
2023-03-05T21:00:12.028Z,100165.53
2023-03-05T21:02:41.127Z,100162.00
2023-03-05T21:05:10.338Z,100160.09
2023-03-05T21:07:38.874Z,100153.59
2023-03-05T21:10:09.389Z,100148.69
2023-03-05T21:12:38.060Z,100149.47
2023-03-05T21:15:10.367Z,100144.31
2023-03-05T21:17:38.944Z,100138.31
2023-03-05T21:20:09.555Z,100146.41
2023-03-05T21:22:38.304Z,100137.50
2023-03-05T21:25:16.242Z,100126.66
2023-03-05T21:27:44.930Z,100131.22
2023-03-05T21:30:15.581Z,100120.94
2023-03-05T21:32:44.620Z,100123.72
2023-03-05T21:35:17.197Z,100127.41
2023-03-05T21:37:46.626Z,100122.00
2023-03-05T21:40:16.928Z,100119.78
2023-03-05T21:42:45.939Z,100107.69
2023-03-05T21:45:18.212Z,100118.75
2023-03-05T21:47:49.168Z,100113.88
2023-03-05T21:50:17.751Z,100109.00
2023-03-05T21:52:46.798Z,100108.97
2023-03-05T21:55:17.517Z,100096.53
2023-03-05T21:57:50.897Z,100094.38
2023-03-05T22:00:23.897Z,100087.91
2023-03-05T22:02:52.738Z,100086.28
2023-03-05T22:05:21.593Z,100081.69
2023-03-05T22:07:49.961Z,100077.66
2023-03-05T22:10:21.287Z,100070.09
2023-03-05T22:12:56.657Z,100068.47
2023-03-05T22:15:26.587Z,100064.16
2023-03-05T22:17:55.000Z,100066.06
2023-03-05T22:20:23.817Z,100059.34
2023-03-05T22:22:52.771Z,100052.34
2023-03-05T22:25:21.275Z,100050.72
2023-03-05T22:27:49.816Z,100054.22
2023-03-05T22:30:18.444Z,100052.91
2023-03-05T22:32:48.505Z,100048.63
2023-03-05T22:35:17.279Z,100047.81
2023-03-05T22:37:45.736Z,100046.72
2023-03-05T22:40:17.032Z,100040.25
2023-03-05T22:42:46.452Z,100039.09
2023-03-05T22:45:17.939Z,100038.28
2023-03-05T22:47:50.229Z,100025.84
2023-03-05T22:50:19.494Z,100024.78
2023-03-05T22:52:48.028Z,100023.72
2023-03-05T22:55:17.420Z,100021.03
2023-03-05T22:57:46.876Z,100025.31
2023-03-05T23:00:21.682Z,100026.94
2023-03-05T23:02:52.527Z,100021.81
2023-03-05T23:05:21.143Z,100013.47
2023-03-05T23:07:49.895Z,100014.00
2023-03-05T23:10:23.844Z,100017.81
2023-03-05T23:12:56.702Z,100012.41
2023-03-05T23:15:27.522Z,100007.00
2023-03-05T23:17:57.719Z,100009.41
2023-03-05T23:20:27.953Z,100006.44
2023-03-05T23:22:57.122Z,100003.19
2023-03-05T23:25:28.015Z,99996.97
2023-03-05T23:27:57.842Z,99990.19
2023-03-05T23:30:28.084Z,99992.59
2023-03-05T23:33:00.226Z,99990.72
2023-03-05T23:35:30.756Z,99992.88
2023-03-05T23:38:00.701Z,99986.94
2023-03-05T23:40:31.184Z,99986.38
2023-03-05T23:43:00.434Z,99982.59
2023-03-05T23:45:29.525Z,99987.44
2023-03-05T23:47:59.834Z,99976.66
2023-03-05T23:50:30.947Z,99979.88
2023-03-05T23:53:01.965Z,99976.91
2023-03-05T23:55:33.704Z,99971.25
2023-03-05T23:58:02.901Z,99969.63
